Time;durP1;ratioP1;P1;durP2;ratioP2;P2;SDS_P1;SDS_P2;PMS_P1;PMS_P2;Temp;Humidity;BMP_temperature;BMP_pressure;BME280_temperature;BME280_humidity;BME280_pressure;Samples;Min_cycle;Max_cycle;Signal;HPM_P1;HPM_P2
2022/01/03 00:00:48;;;;;;;2.40;1.58;;;10.10;99.90;;;;;;5001245;28;20034;-49
2022/01/03 00:03:16;;;;;;;4.45;1.88;;;10.20;99.90;;;;;;5002824;28;20038;-49
2022/01/03 00:05:41;;;;;;;2.22;1.35;;;10.10;99.90;;;;;;5004123;28;20042;-49
2022/01/03 00:08:07;;;;;;;2.63;1.75;;;10.10;99.90;;;;;;5004629;28;20017;-49
2022/01/03 00:10:34;;;;;;;1.35;1.25;;;10.10;99.90;;;;;;5001120;28;20365;-49
2022/01/03 00:13:01;;;;;;;2.13;1.35;;;10.20;99.90;;;;;;5000358;28;20026;-49
2022/01/03 00:15:28;;;;;;;2.53;1.40;;;10.10;99.90;;;;;;5001586;28;20041;-49
2022/01/03 00:17:53;;;;;;;6.38;1.92;;;10.10;99.90;;;;;;5003501;28;20021;-49
2022/01/03 00:20:20;;;;;;;3.05;1.15;;;10.20;99.90;;;;;;5001643;28;20346;-50
2022/01/03 00:23:03;;;;;;;4.38;1.55;;;10.10;99.90;;;;;;5000962;28;20412;-49
2022/01/03 00:25:29;;;;;;;2.55;1.13;;;10.20;99.90;;;;;;5002131;28;20045;-49
2022/01/03 00:28:22;;;;;;;4.53;2.03;;;10.10;99.90;;;;;;5000887;28;20033;-50
2022/01/03 00:30:53;;;;;;;4.90;1.38;;;10.20;99.90;;;;;;5001505;28;20042;-49
2022/01/03 00:33:19;;;;;;;5.25;1.92;;;10.20;99.90;;;;;;4999254;28;20030;-49
2022/01/03 00:35:49;;;;;;;3.30;1.52;;;10.10;99.90;;;;;;5002640;28;20338;-49
2022/01/03 00:38:18;;;;;;;5.30;1.48;;;10.20;99.90;;;;;;5000433;28;20032;-49
2022/01/03 00:40:44;;;;;;;4.35;1.17;;;10.20;99.90;;;;;;5002618;28;20491;-50
2022/01/03 00:43:10;;;;;;;3.88;0.98;;;10.20;99.90;;;;;;5000153;28;20026;-50
2022/01/03 00:45:36;;;;;;;3.20;1.38;;;10.20;99.90;;;;;;5002336;28;20123;-49
2022/01/03 00:48:06;;;;;;;3.83;1.77;;;10.20;99.90;;;;;;5001726;28;20460;-49
2022/01/03 00:50:32;;;;;;;;;;;10.10;99.90;;;;;;5003490;28;20108;-49
2022/01/03 00:52:58;;;;;;;4.45;1.10;;;10.10;99.90;;;;;;4999434;28;19996;-50
2022/01/03 00:55:24;;;;;;;1.70;1.10;;;10.10;99.90;;;;;;5000564;28;20105;-49
2022/01/03 00:58:09;;;;;;;4.18;1.70;;;10.10;99.90;;;;;;5001996;28;20030;-50
2022/01/03 01:00:38;;;;;;;2.95;1.35;;;10.20;99.90;;;;;;5002331;28;20445;-50
2022/01/03 01:03:18;;;;;;;3.58;1.33;;;10.20;99.90;;;;;;5000622;28;20137;-49
2022/01/03 01:05:45;;;;;;;;;;;10.20;99.90;;;;;;5001141;28;20120;-49
2022/01/03 01:08:11;;;;;;;5.25;1.77;;;10.10;99.90;;;;;;5002712;28;19905;-49
2022/01/03 01:10:39;;;;;;;5.82;1.85;;;10.10;99.90;;;;;;4999317;28;20022;-49
2022/01/03 01:13:09;;;;;;;1.48;1.02;;;10.20;99.90;;;;;;5000303;28;20049;-49
2022/01/03 01:15:36;;;;;;;1.67;1.13;;;10.10;99.90;;;;;;5001959;28;20044;-49
2022/01/03 01:18:04;;;;;;;1.13;1.00;;;10.20;99.90;;;;;;5000930;28;20101;-49
2022/01/03 01:20:31;;;;;;;0.90;0.80;;;10.10;99.90;;;;;;4999484;28;20018;-49
2022/01/03 01:22:56;;;;;;;1.90;0.80;;;10.20;99.90;;;;;;5000106;28;20025;-49
2022/01/03 01:27:50;;;;;;;4.05;1.38;;;10.10;99.90;;;;;;5000048;28;20081;-49
2022/01/03 01:30:25;;;;;;;9.30;1.10;;;10.20;99.90;;;;;;5001177;28;20381;-49
2022/01/03 01:33:19;;;;;;;2.13;0.88;;;10.20;99.90;;;;;;5001801;28;20134;-49
2022/01/03 01:35:47;;;;;;;2.15;0.70;;;10.10;99.90;;;;;;5000314;28;20045;-50
2022/01/03 01:38:17;;;;;;;1.13;0.70;;;10.20;99.90;;;;;;5001405;28;20026;-49
2022/01/03 01:40:49;;;;;;;;;;;10.10;99.90;;;;;;5006167;28;20120;-49
2022/01/03 01:43:19;;;;;;;2.08;0.70;;;10.20;99.90;;;;;;5004940;28;19943;-49
2022/01/03 01:45:48;;;;;;;2.63;1.02;;;10.20;99.90;;;;;;5004808;28;20035;-49
2022/01/03 01:48:16;;;;;;;7.13;1.15;;;10.20;99.90;;;;;;5007161;28;20088;-49
2022/01/03 01:50:42;;;;;;;5.18;1.15;;;10.20;99.90;;;;;;5003997;28;20026;-49
2022/01/03 01:53:09;;;;;;;4.22;1.08;;;10.20;99.90;;;;;;5003117;28;20030;-50
2022/01/03 01:55:39;;;;;;;3.83;1.00;;;10.20;99.90;;;;;;5006131;28;20037;-50
2022/01/03 01:58:23;;;;;;;2.60;0.77;;;10.20;99.90;;;;;;5005288;28;20022;-49
2022/01/03 02:00:56;;;;;;;1.58;0.80;;;10.20;99.90;;;;;;5005004;28;20033;-50
2022/01/03 02:03:21;;;;;;;3.90;1.13;;;10.20;99.90;;;;;;5002378;28;20030;-49
2022/01/03 02:06:07;;;;;;;2.22;0.98;;;10.20;99.90;;;;;;5004869;28;20097;-50
2022/01/03 02:08:42;;;;;;;3.38;0.73;;;10.20;99.90;;;;;;5002712;28;20121;-49
2022/01/03 02:11:22;;;;;;;0.68;0.68;;;10.20;99.90;;;;;;5003892;28;20529;-50
2022/01/03 02:13:48;;;;;;;1.48;0.73;;;10.20;99.90;;;;;;5003684;28;20101;-50
2022/01/03 02:16:14;;;;;;;2.33;0.82;;;10.20;99.90;;;;;;5003443;28;20472;-49
2022/01/03 02:18:40;;;;;;;4.40;0.82;;;10.20;99.90;;;;;;5005440;28;20026;-49
2022/01/03 02:21:05;;;;;;;4.07;0.82;;;10.20;99.90;;;;;;5003276;28;20522;-49
2022/01/03 02:23:31;;;;;;;3.72;0.95;;;10.20;99.90;;;;;;5002570;28;20022;-49
2022/01/03 02:25:57;;;;;;;10.32;1.00;;;10.20;99.90;;;;;;5002811;28;20442;-49
2022/01/03 02:28:22;;;;;;;2.08;0.98;;;10.20;99.90;;;;;;5004795;28;20018;-49
2022/01/03 02:30:50;;;;;;;7.07;1.48;;;10.10;99.90;;;;;;5005071;28;20026;-49
2022/01/03 02:33:17;;;;;;;4.55;1.00;;;10.20;99.90;;;;;;5001310;28;20438;-49
2022/01/03 02:35:44;;;;;;;0.93;0.65;;;10.20;99.90;;;;;;5003621;28;20065;-50
2022/01/03 02:38:10;;;;;;;0.47;0.47;;;10.20;99.90;;;;;;5003695;28;20026;-49
2022/01/03 02:40:36;;;;;;;1.02;0.75;;;10.20;99.90;;;;;;5002999;28;20031;-49
2022/01/03 02:43:03;;;;;;;0.22;0.22;;;10.20;99.90;;;;;;5003107;28;20030;-49
2022/01/03 02:45:29;;;;;;;5.68;1.27;;;10.20;99.90;;;;;;5004509;28;20056;-49
2022/01/03 02:47:57;;;;;;;1.60;0.63;;;10.20;99.90;;;;;;5002765;28;20373;-50
2022/01/03 02:50:25;;;;;;;3.90;0.93;;;10.20;99.90;;;;;;5002380;28;20378;-49
2022/01/03 02:52:51;;;;;;;1.63;0.70;;;10.20;99.90;;;;;;5001781;28;20068;-50
2022/01/03 02:55:18;;;;;;;3.17;0.63;;;10.20;99.90;;;;;;5003223;28;20030;-49
2022/01/03 02:57:50;;;;;;;0.70;0.70;;;10.20;99.90;;;;;;5004305;28;20467;-50
2022/01/03 03:00:29;;;;;;;2.75;1.02;;;10.20;99.90;;;;;;5003866;28;20464;-49
2022/01/03 03:02:55;;;;;;;5.43;1.58;;;10.20;99.90;;;;;;5001954;28;20377;-50
2022/01/03 03:05:21;;;;;;;1.05;0.82;;;10.20;99.90;;;;;;5001906;28;20046;-49
2022/01/03 03:07:48;;;;;;;1.13;0.85;;;10.20;99.90;;;;;;5003558;28;20022;-50
2022/01/03 03:10:18;;;;;;;0.60;0.55;;;10.20;99.90;;;;;;5003940;28;20113;-49
2022/01/03 03:12:45;;;;;;;2.90;1.17;;;10.20;99.90;;;;;;5000964;28;20030;-49
2022/01/03 03:15:12;;;;;;;1.05;0.73;;;10.20;99.90;;;;;;5003477;28;20100;-49
2022/01/03 03:17:39;;;;;;;7.13;0.77;;;10.30;99.90;;;;;;5003992;28;20423;-49
2022/01/03 03:20:09;;;;;;;1.27;0.50;;;10.30;99.90;;;;;;5002243;28;20034;-49
2022/01/03 03:22:35;;;;;;;;;;;10.30;99.90;;;;;;5002215;28;20061;-49
2022/01/03 03:25:06;;;;;;;0.47;0.47;;;10.30;99.90;;;;;;5005248;28;20259;-49
2022/01/03 03:27:31;;;;;;;;;;;10.20;99.90;;;;;;5002778;28;20045;-49
2022/01/03 03:29:58;;;;;;;2.83;1.15;;;10.20;99.90;;;;;;5004138;28;19996;-50
2022/01/03 03:32:26;;;;;;;2.03;0.80;;;10.20;99.90;;;;;;4994774;28;20105;-49
2022/01/03 03:34:53;;;;;;;0.63;0.60;;;10.20;99.90;;;;;;5003932;28;20109;-49
2022/01/03 03:37:19;;;;;;;2.80;0.90;;;10.20;99.90;;;;;;5001451;28;20389;-49
2022/01/03 03:39:46;;;;;;;4.65;0.90;;;10.30;99.90;;;;;;5001678;28;20034;-49
2022/01/03 03:42:13;;;;;;;1.98;0.90;;;10.30;99.90;;;;;;5000563;28;20030;-49
2022/01/03 03:44:39;;;;;;;7.78;1.25;;;10.30;99.90;;;;;;5001100;28;20025;-50
2022/01/03 03:47:06;;;;;;;1.27;0.45;;;10.30;99.90;;;;;;5003249;28;20030;-49
2022/01/03 03:49:33;;;;;;;5.82;0.80;;;10.30;99.90;;;;;;5001291;28;20026;-49
2022/01/03 03:52:01;;;;;;;0.80;0.80;;;10.30;99.90;;;;;;5001876;28;20057;-49
2022/01/03 03:54:31;;;;;;;4.80;0.98;;;10.30;99.90;;;;;;5003352;28;20031;-49
2022/01/03 03:56:57;;;;;;;2.58;0.80;;;10.30;99.90;;;;;;5002942;28;20449;-49
2022/01/03 03:59:25;;;;;;;9.02;0.90;;;10.30;99.90;;;;;;5002886;28;20095;-49
2022/01/03 04:01:51;;;;;;;2.78;1.00;;;10.30;99.90;;;;;;5001673;28;20076;-50
2022/01/03 04:04:17;;;;;;;0.88;0.60;;;10.30;99.90;;;;;;5001755;28;20029;-49
2022/01/03 04:06:43;;;;;;;9.48;1.30;;;10.30;99.90;;;;;;5004067;28;20033;-50
2022/01/03 04:09:08;;;;;;;0.77;0.77;;;10.30;99.90;;;;;;5004065;28;20342;-49
2022/01/03 04:11:34;;;;;;;4.15;0.82;;;10.30;99.90;;;;;;5001730;28;20301;-49
2022/01/03 04:13:59;;;;;;;7.32;0.85;;;10.30;99.90;;;;;;5000528;28;20369;-49
2022/01/03 04:16:25;;;;;;;1.00;0.40;;;10.30;99.90;;;;;;5002915;28;20037;-49
2022/01/03 04:18:51;;;;;;;2.28;1.50;;;10.30;99.90;;;;;;5002480;28;20036;-50
2022/01/03 04:21:16;;;;;;;4.13;1.08;;;10.30;99.90;;;;;;4999738;28;20022;-49
2022/01/03 04:23:42;;;;;;;0.85;0.63;;;10.30;99.90;;;;;;5002542;28;20073;-49
2022/01/03 04:26:08;;;;;;;3.85;0.93;;;10.30;99.90;;;;;;5001440;28;20042;-49
2022/01/03 04:28:33;;;;;;;1.45;0.85;;;10.30;99.90;;;;;;5003223;28;20366;-50
2022/01/03 04:30:59;;;;;;;1.05;0.95;;;10.30;99.90;;;;;;5001404;28;20030;-50
2022/01/03 04:33:25;;;;;;;4.15;1.08;;;10.30;99.90;;;;;;5000255;28;20046;-49
2022/01/03 04:35:51;;;;;;;5.60;1.40;;;10.30;99.90;;;;;;5002980;28;20100;-50
2022/01/03 04:38:18;;;;;;;2.70;1.75;;;10.30;99.90;;;;;;5000971;28;20026;-49
2022/01/03 04:40:44;;;;;;;1.33;1.20;;;10.30;99.90;;;;;;4999415;28;20041;-49
2022/01/03 04:43:10;;;;;;;4.15;1.10;;;10.40;99.90;;;;;;5001977;28;20026;-50
2022/01/03 04:45:35;;;;;;;4.53;0.90;;;10.30;99.90;;;;;;5001541;28;20501;-49
2022/01/03 04:48:01;;;;;;;5.72;0.80;;;10.30;99.90;;;;;;5000484;28;20029;-50
2022/01/03 04:50:27;;;;;;;2.63;1.10;;;10.40;99.90;;;;;;5001991;28;20342;-49
2022/01/03 04:52:52;;;;;;;0.80;0.80;;;10.30;99.90;;;;;;5000951;28;20040;-49
2022/01/03 04:55:18;;;;;;;1.55;0.63;;;10.40;99.90;;;;;;4999707;28;20037;-49
2022/01/03 04:57:44;;;;;;;4.80;0.90;;;10.30;99.90;;;;;;5000710;28;20030;-49
2022/01/03 05:00:11;;;;;;;3.60;0.82;;;10.40;99.90;;;;;;5001069;28;20446;-50
2022/01/03 05:02:37;;;;;;;8.20;1.17;;;10.30;99.90;;;;;;5001657;28;20041;-50
2022/01/03 05:05:04;;;;;;;8.48;0.93;;;10.30;99.90;;;;;;5001247;28;20583;-49
2022/01/03 05:07:30;;;;;;;10.73;1.75;;;10.30;99.90;;;;;;5002039;28;20052;-50
2022/01/03 05:09:56;;;;;;;1.50;0.70;;;10.30;99.90;;;;;;5002507;28;20449;-50
2022/01/03 05:12:21;;;;;;;6.22;1.05;;;10.30;99.90;;;;;;4999780;28;20026;-50
2022/01/03 05:14:47;;;;;;;6.53;1.75;;;10.30;99.90;;;;;;5002135;28;20022;-49
2022/01/03 05:17:12;;;;;;;6.25;1.27;;;10.40;99.90;;;;;;4999984;28;20517;-49
2022/01/03 05:19:38;;;;;;;6.53;1.00;;;10.30;99.90;;;;;;5000771;28;20025;-49
2022/01/03 05:22:04;;;;;;;3.20;0.88;;;10.30;99.90;;;;;;5001282;28;20033;-49
2022/01/03 05:24:33;;;;;;;10.35;1.33;;;10.40;99.90;;;;;;4998749;28;20033;-49
2022/01/03 05:26:58;;;;;;;1.33;0.60;;;10.30;99.90;;;;;;5000602;28;20404;-49
2022/01/03 05:29:24;;;;;;;2.63;0.98;;;10.40;99.90;;;;;;5002080;28;20025;-50
2022/01/03 05:31:49;;;;;;;1.38;1.00;;;10.40;99.90;;;;;;4999723;28;20046;-49
2022/01/03 05:34:15;;;;;;;1.80;0.77;;;10.30;99.90;;;;;;5000031;28;20018;-49
2022/01/03 05:36:41;;;;;;;3.15;0.60;;;10.40;99.90;;;;;;5002027;28;20022;-50
2022/01/03 05:39:07;;;;;;;10.02;0.93;;;10.40;99.90;;;;;;5000507;28;20337;-49
2022/01/03 05:41:32;;;;;;;2.92;0.90;;;10.30;99.90;;;;;;5001055;28;20034;-49
2022/01/03 05:43:59;;;;;;;1.85;0.80;;;10.40;99.90;;;;;;4999342;28;20031;-49
2022/01/03 05:46:25;;;;;;;0.75;0.68;;;10.30;99.90;;;;;;5001007;28;20067;-49
2022/01/03 05:48:51;;;;;;;1.38;0.85;;;10.40;99.90;;;;;;5002081;28;20512;-49
2022/01/03 05:51:16;;;;;;;6.20;0.98;;;10.30;99.90;;;;;;4998520;28;20069;-49
2022/01/03 05:53:42;;;;;;;1.55;0.85;;;10.30;99.90;;;;;;5002742;28;20053;-49
2022/01/03 05:56:08;;;;;;;9.45;1.67;;;10.30;99.90;;;;;;4999186;28;20034;-50
2022/01/03 05:58:34;;;;;;;1.95;1.30;;;10.30;99.90;;;;;;5001485;28;20056;-49
2022/01/03 06:01:01;;;;;;;2.33;1.10;;;10.30;99.90;;;;;;5000784;28;20042;-50
2022/01/03 06:03:29;;;;;;;2.42;0.77;;;10.30;99.90;;;;;;4998542;28;20092;-49
2022/01/03 06:08:24;;;;;;;0.75;0.70;;;10.30;99.90;;;;;;5004263;28;20026;-49
2022/01/03 06:10:50;;;;;;;5.97;0.70;;;10.40;99.90;;;;;;4998614;28;20373;-49
2022/01/03 06:13:16;;;;;;;0.80;0.77;;;10.30;99.90;;;;;;5000029;28;20339;-49
2022/01/03 06:15:43;;;;;;;7.10;1.35;;;10.30;99.90;;;;;;5001269;28;20034;-49
2022/01/03 06:18:11;;;;;;;4.65;0.88;;;10.40;99.90;;;;;;5000131;28;20523;-49
2022/01/03 06:20:45;;;;;;;2.65;0.65;;;10.30;99.90;;;;;;4999036;28;20081;-49
2022/01/03 06:23:13;;;;;;;9.27;0.80;;;10.30;99.90;;;;;;5001484;28;20034;-50
2022/01/03 06:25:39;;;;;;;1.10;0.70;;;10.30;99.90;;;;;;5001744;28;20050;-49
2022/01/03 06:28:08;;;;;;;1.17;0.65;;;10.30;99.90;;;;;;5005026;28;20235;-49
2022/01/03 06:30:35;;;;;;;1.20;0.85;;;10.30;99.90;;;;;;5004765;28;20423;-50
2022/01/03 06:33:02;;;;;;;3.45;1.10;;;10.30;99.90;;;;;;5001259;28;20145;-49
2022/01/03 06:35:28;;;;;;;1.42;0.75;;;10.30;99.90;;;;;;5003856;28;20037;-49
2022/01/03 06:37:53;;;;;;;9.57;0.98;;;10.30;99.90;;;;;;5004941;28;20033;-50
2022/01/03 06:40:19;;;;;;;2.65;0.82;;;10.30;99.90;;;;;;5004575;28;20037;-50
2022/01/03 06:42:45;;;;;;;3.78;1.35;;;10.30;99.90;;;;;;5003479;28;20030;-49
2022/01/03 06:45:11;;;;;;;6.28;1.55;;;10.30;99.90;;;;;;5002098;28;20030;-49
2022/01/03 06:47:36;;;;;;;8.52;2.70;;;10.30;99.90;;;;;;5004656;28;20026;-50
2022/01/03 06:50:03;;;;;;;2.00;0.98;;;10.30;99.90;;;;;;5004060;28;20361;-49
2022/01/03 06:52:29;;;;;;;3.97;1.40;;;10.30;99.90;;;;;;5001934;28;20034;-49
2022/01/03 06:54:55;;;;;;;3.90;0.50;;;10.30;99.90;;;;;;5003034;28;20056;-49
2022/01/03 06:57:21;;;;;;;2.00;0.90;;;10.30;99.90;;;;;;5004805;28;20105;-50
2022/01/03 06:59:46;;;;;;;7.05;1.02;;;10.30;99.90;;;;;;5001972;28;20129;-50
2022/01/03 07:02:12;;;;;;;2.25;0.90;;;10.30;99.90;;;;;;5002657;28;20041;-50
2022/01/03 07:04:38;;;;;;;0.52;0.52;;;10.30;99.90;;;;;;5004652;28;20033;-49
2022/01/03 07:07:04;;;;;;;3.20;0.90;;;10.30;99.90;;;;;;5002124;28;20049;-49
2022/01/03 07:09:30;;;;;;;4.90;1.10;;;10.30;99.90;;;;;;5005784;28;20040;-49
2022/01/03 07:11:55;;;;;;;1.67;0.80;;;10.30;99.90;;;;;;4999893;28;20405;-50
2022/01/03 07:19:36;;;;;;;11.07;1.38;;;10.30;99.90;;;;;;5002210;28;20038;-49
2022/01/03 07:22:05;;;;;;;3.40;1.00;;;10.30;99.90;;;;;;5003494;28;20022;-49
2022/01/03 07:24:35;;;;;;;4.03;0.73;;;10.30;99.90;;;;;;5003113;28;20056;-50
2022/01/03 07:27:06;;;;;;;2.28;0.88;;;10.30;99.90;;;;;;5001342;28;20274;-49
2022/01/03 07:29:31;;;;;;;;;;;10.30;99.90;;;;;;5003248;28;20084;-49
2022/01/03 07:31:57;;;;;;;6.60;1.55;;;10.30;99.90;;;;;;5003346;28;19905;-49
2022/01/03 07:34:23;;;;;;;2.65;1.20;;;10.30;99.90;;;;;;5000964;28;20037;-49
2022/01/03 07:36:50;;;;;;;2.55;0.65;;;10.30;99.90;;;;;;5002247;28;20535;-50
2022/01/03 07:39:16;;;;;;;0.85;0.60;;;10.30;99.90;;;;;;5006480;28;20120;-49
2022/01/03 07:41:41;;;;;;;1.23;0.57;;;10.30;99.90;;;;;;5007270;28;20108;-50
2022/01/03 07:44:07;;;;;;;7.45;1.13;;;10.30;99.90;;;;;;5010591;28;20026;-50
2022/01/03 07:46:32;;;;;;;6.57;0.80;;;10.30;99.90;;;;;;5006413;28;20044;-50
2022/01/03 07:48:58;;;;;;;4.35;0.85;;;10.30;99.90;;;;;;5007844;28;20437;-49
2022/01/03 07:51:24;;;;;;;3.00;1.10;;;10.30;99.90;;;;;;5008738;28;20026;-50
2022/01/03 07:53:49;;;;;;;3.55;1.40;;;10.30;99.90;;;;;;5010493;28;20025;-49
2022/01/03 07:56:18;;;;;;;3.00;0.93;;;10.30;99.90;;;;;;5008377;28;20030;-49
2022/01/03 07:58:44;;;;;;;7.57;1.55;;;10.30;99.90;;;;;;5010220;28;20409;-50
2022/01/03 08:01:10;;;;;;;9.13;2.20;;;10.30;99.90;;;;;;5009333;28;20030;-50
2022/01/03 08:03:36;;;;;;;2.13;0.93;;;10.30;99.90;;;;;;5009203;28;20483;-49
2022/01/03 08:06:02;;;;;;;1.75;0.85;;;10.30;99.90;;;;;;5009298;28;20030;-49
2022/01/03 08:08:28;;;;;;;0.40;0.40;;;10.30;99.90;;;;;;5009529;28;20037;-49
2022/01/03 08:10:53;;;;;;;2.47;1.10;;;10.30;99.90;;;;;;5007322;28;20036;-50
2022/01/03 08:13:19;;;;;;;3.78;1.20;;;10.30;99.90;;;;;;5008649;28;20021;-49
2022/01/03 08:15:45;;;;;;;7.65;1.20;;;10.30;99.90;;;;;;5007378;28;20038;-49
2022/01/03 08:18:10;;;;;;;1.13;0.70;;;10.30;99.90;;;;;;5009135;28;20030;-49
2022/01/03 08:20:36;;;;;;;2.55;1.20;;;10.30;99.90;;;;;;5010062;28;20068;-49
2022/01/03 08:23:02;;;;;;;4.47;1.65;;;10.30;99.90;;;;;;5008498;28;20108;-50
2022/01/03 08:25:30;;;;;;;1.58;0.90;;;10.30;99.90;;;;;;5007196;28;20127;-50
2022/01/03 08:27:56;;;;;;;2.15;1.23;;;10.30;99.90;;;;;;5008187;28;20026;-50
2022/01/03 08:30:22;;;;;;;5.55;1.90;;;10.30;99.90;;;;;;5008854;28;20022;-50
2022/01/03 08:32:47;;;;;;;6.95;2.33;;;10.30;99.90;;;;;;5008967;28;20033;-50
2022/01/03 08:35:13;;;;;;;8.30;2.53;;;10.30;99.90;;;;;;5009323;28;20022;-49
2022/01/03 08:37:38;;;;;;;9.43;1.50;;;10.30;99.90;;;;;;5009059;28;20040;-50
2022/01/03 08:40:06;;;;;;;6.00;2.63;;;10.30;99.90;;;;;;5008683;28;20018;-49
2022/01/03 08:42:33;;;;;;;6.45;1.83;;;10.30;99.90;;;;;;4998957;28;20037;-49
2022/01/03 08:45:00;;;;;;;3.47;2.20;;;10.30;99.90;;;;;;5002154;28;20113;-49
2022/01/03 08:47:26;;;;;;;8.60;1.73;;;10.30;99.90;;;;;;5000278;28;20037;-50
2022/01/03 08:49:51;;;;;;;7.47;1.48;;;10.30;99.90;;;;;;5001396;28;20022;-50
2022/01/03 08:52:17;;;;;;;5.10;1.63;;;10.30;99.90;;;;;;5000537;28;20029;-50
2022/01/03 08:54:42;;;;;;;0.77;0.77;;;10.30;99.90;;;;;;5002362;28;20060;-50
2022/01/03 08:57:08;;;;;;;2.13;1.17;;;10.30;99.90;;;;;;5001004;28;20121;-50
2022/01/03 08:59:34;;;;;;;1.75;1.08;;;10.30;99.90;;;;;;5002936;28;20476;-49
2022/01/03 09:01:59;;;;;;;15.32;1.52;;;10.30;99.90;;;;;;5000857;28;20034;-49
2022/01/03 09:04:25;;;;;;;3.78;0.90;;;10.30;99.90;;;;;;5000364;28;20381;-49
2022/01/03 09:06:52;;;;;;;4.30;0.95;;;10.30;99.90;;;;;;4999972;28;20034;-49
2022/01/03 09:09:18;;;;;;;4.65;1.20;;;10.30;99.90;;;;;;5006335;28;20034;-50
2022/01/03 09:11:44;;;;;;;4.22;0.90;;;10.30;99.90;;;;;;5006558;28;20048;-50
2022/01/03 09:14:09;;;;;;;0.30;0.30;;;10.30;99.90;;;;;;5004164;28;20424;-49
2022/01/03 09:16:35;;;;;;;2.72;0.80;;;10.30;99.90;;;;;;5003353;28;20053;-50
2022/01/03 09:19:01;;;;;;;2.72;1.02;;;10.30;99.90;;;;;;4999633;28;20029;-49
2022/01/03 09:21:28;;;;;;;6.80;0.68;;;10.30;99.90;;;;;;4996836;28;20365;-49
2022/01/03 09:24:06;;;;;;;8.98;1.73;;;10.30;99.90;;;;;;5002641;28;20037;-49
2022/01/03 09:29:17;;;;;;;1.70;1.02;;;10.40;99.90;;;;;;5001140;28;20045;-49
2022/01/03 09:31:43;;;;;;;1.50;1.17;;;10.40;99.90;;;;;;5000809;28;20134;-50
2022/01/03 09:34:09;;;;;;;5.40;2.30;;;10.40;99.90;;;;;;4999770;28;20114;-49
2022/01/03 09:36:35;;;;;;;1.20;0.70;;;10.40;99.90;;;;;;5005345;28;20065;-50
2022/01/03 09:39:02;;;;;;;7.10;1.00;;;10.40;99.90;;;;;;5002223;28;20053;-50
2022/01/03 09:41:29;;;;;;;2.55;0.90;;;10.40;99.90;;;;;;4999348;28;20041;-50
2022/01/03 09:44:02;;;;;;;7.93;1.10;;;10.40;99.90;;;;;;5000398;28;20026;-50
2022/01/03 09:46:33;;;;;;;2.58;0.80;;;10.40;99.90;;;;;;5002040;28;20416;-50
2022/01/03 09:48:59;;;;;;;3.83;1.35;;;10.40;99.90;;;;;;4999651;28;20113;-49
2022/01/03 09:51:27;;;;;;;1.65;1.30;;;10.40;99.90;;;;;;5004405;28;20164;-50
2022/01/03 09:53:55;;;;;;;2.88;1.10;;;10.40;99.90;;;;;;5005243;28;20014;-49
2022/01/03 09:56:21;;;;;;;0.40;0.40;;;10.40;99.90;;;;;;5003991;28;20108;-50
2022/01/03 09:58:47;;;;;;;3.45;1.40;;;10.40;99.90;;;;;;5000980;28;20038;-50
2022/01/03 10:01:14;;;;;;;0.95;0.57;;;10.40;99.90;;;;;;5006956;28;20481;-49
2022/01/03 10:03:47;;;;;;;1.60;0.90;;;10.40;99.90;;;;;;5009010;28;20072;-50
2022/01/03 10:06:15;;;;;;;0.52;0.52;;;10.40;99.90;;;;;;5004518;28;20034;-49
2022/01/03 10:08:42;;;;;;;4.32;0.75;;;10.50;99.90;;;;;;5003804;28;20029;-49
2022/01/03 10:11:07;;;;;;;0.30;0.30;;;10.40;99.90;;;;;;5003960;28;20152;-49
2022/01/03 10:13:33;;;;;;;0.40;0.40;;;10.50;99.90;;;;;;4999692;28;20427;-49
2022/01/03 10:15:58;;;;;;;1.45;0.60;;;10.50;99.90;;;;;;5005586;28;20037;-49
2022/01/03 10:18:26;;;;;;;1.75;1.00;;;10.50;99.90;;;;;;5004361;28;20117;-49
2022/01/03 10:20:52;;;;;;;2.78;0.68;;;10.50;99.90;;;;;;5003086;28;20038;-49
2022/01/03 10:23:18;;;;;;;14.18;1.75;;;10.50;99.90;;;;;;5004250;28;20037;-50
2022/01/03 10:25:48;;;;;;;1.05;0.73;;;10.50;99.90;;;;;;5004580;28;20303;-50
2022/01/03 10:28:26;;;;;;;1.30;0.70;;;10.50;99.90;;;;;;5001612;28;20026;-50
2022/01/03 10:30:52;;;;;;;0.45;0.45;;;10.50;99.90;;;;;;5005226;28;20412;-49
2022/01/03 10:33:20;;;;;;;4.38;1.10;;;10.50;99.90;;;;;;5001977;28;20473;-49
2022/01/03 10:35:47;;;;;;;2.10;0.90;;;10.50;99.90;;;;;;5003690;28;20028;-49
2022/01/03 10:38:36;;;;;;;0.30;0.30;;;10.50;99.90;;;;;;5004768;28;20057;-50
2022/01/03 10:41:09;;;;;;;5.72;1.75;;;10.50;99.90;;;;;;5002685;28;20537;-49
2022/01/03 10:43:34;;;;;;;3.80;1.08;;;10.50;99.90;;;;;;5001341;28;20471;-50
2022/01/03 10:46:02;;;;;;;0.88;0.47;;;10.50;99.90;;;;;;5004706;28;20050;-50
2022/01/03 10:48:34;;;;;;;1.85;0.82;;;10.50;99.90;;;;;;5005239;28;20026;-49
2022/01/03 10:51:02;;;;;;;10.15;2.17;;;10.50;99.90;;;;;;5007020;28;20034;-49
2022/01/03 10:53:45;;;;;;;4.05;0.52;;;10.50;99.90;;;;;;5007478;28;20052;-50
2022/01/03 10:56:30;;;;;;;1.13;0.85;;;10.50;99.90;;;;;;5005170;28;20030;-50
2022/01/03 10:58:58;;;;;;;7.78;0.80;;;10.50;99.90;;;;;;5000810;28;20026;-50
2022/01/03 11:01:29;;;;;;;1.85;0.70;;;10.50;99.90;;;;;;5001198;28;20048;-49
2022/01/03 11:03:59;;;;;;;3.40;1.30;;;10.50;99.90;;;;;;5002268;28;20041;-50
2022/01/03 11:11:45;;;;;;;0.22;0.22;;;10.60;99.90;;;;;;5003514;28;20169;-50
2022/01/03 11:14:39;;;;;;;3.28;0.70;;;10.60;99.90;;;;;;5002173;28;20041;-49
2022/01/03 11:17:28;;;;;;;2.40;0.65;;;10.60;99.90;;;;;;5004714;28;20061;-50
2022/01/03 11:19:59;;;;;;;10.35;1.35;;;10.60;99.90;;;;;;5005659;28;20081;-50
2022/01/03 11:22:47;;;;;;;3.10;1.20;;;10.60;99.90;;;;;;5005590;28;20124;-50
2022/01/03 11:25:13;;;;;;;0.88;0.45;;;10.60;99.90;;;;;;5007125;28;20045;-50
2022/01/03 11:27:40;;;;;;;4.38;0.73;;;10.60;99.90;;;;;;5003159;28;20460;-50
2022/01/03 11:30:12;;;;;;;3.10;1.25;;;10.60;99.90;;;;;;5004745;28;20088;-50
2022/01/03 11:32:43;;;;;;;3.38;0.60;;;10.60;99.90;;;;;;5002344;28;20033;-49
2022/01/03 11:35:10;;;;;;;0.30;0.30;;;10.60;99.90;;;;;;5005095;28;20473;-49
2022/01/03 11:37:39;;;;;;;16.15;0.98;;;10.60;99.90;;;;;;5003490;28;20038;-50
2022/01/03 11:40:06;;;;;;;1.90;0.52;;;10.60;99.90;;;;;;5005254;28;20088;-49
2022/01/03 11:42:36;;;;;;;3.40;0.63;;;10.60;99.90;;;;;;5003614;28;20066;-50
2022/01/03 11:45:02;;;;;;;1.50;0.75;;;10.60;99.90;;;;;;5002783;28;20026;-50
2022/01/03 11:47:28;;;;;;;0.93;0.50;;;10.60;99.90;;;;;;5008825;28;20481;-49
2022/01/03 11:49:54;;;;;;;0.60;0.60;;;10.60;99.90;;;;;;5010237;28;20125;-50
2022/01/03 11:52:21;;;;;;;1.75;0.65;;;10.60;99.90;;;;;;5007394;28;20101;-49
2022/01/03 11:54:47;;;;;;;9.45;0.93;;;10.60;99.90;;;;;;5006768;28;20042;-50
2022/01/03 11:57:44;;;;;;;1.55;0.80;;;10.60;99.90;;;;;;5006977;28;20030;-49
2022/01/03 12:05:51;;;;;;;6.88;1.23;;;10.60;99.90;;;;;;5008806;28;20052;-50
2022/01/03 12:08:29;;;;;;;0.63;0.50;;;10.60;99.90;;;;;;5008422;28;20022;-49
2022/01/03 12:10:59;;;;;;;2.97;0.80;;;10.60;99.90;;;;;;5009211;28;20025;-50
2022/01/03 12:13:56;;;;;;;5.93;1.00;;;10.60;99.90;;;;;;5002853;28;20025;-50
2022/01/03 12:16:44;;;;;;;4.40;0.85;;;10.60;99.90;;;;;;5007484;28;20025;-50
2022/01/03 12:19:32;;;;;;;1.48;0.80;;;10.60;99.90;;;;;;5005333;28;20088;-49
2022/01/03 12:21:58;;;;;;;1.17;0.65;;;10.70;99.90;;;;;;5002724;28;20030;-50
2022/01/03 12:24:26;;;;;;;2.50;0.52;;;10.60;99.90;;;;;;5005086;28;20044;-49
2022/01/03 12:27:10;;;;;;;1.63;0.57;;;10.60;99.90;;;;;;5002426;28;20030;-49
2022/01/03 12:29:54;;;;;;;3.22;0.80;;;10.70;99.90;;;;;;5004163;28;20385;-49
2022/01/03 12:32:22;;;;;;;3.40;0.75;;;10.70;99.90;;;;;;5002026;28;20026;-50
2022/01/03 12:37:49;;;;;;;2.28;1.02;;;10.70;99.90;;;;;;5002276;28;20041;-49
2022/01/03 12:40:21;;;;;;;5.28;1.33;;;10.70;99.90;;;;;;5003982;28;20442;-49
2022/01/03 12:42:51;;;;;;;2.30;0.85;;;10.70;99.90;;;;;;5003785;28;20030;-49
2022/01/03 12:45:28;;;;;;;0.85;0.80;;;10.70;99.90;;;;;;5003574;28;20373;-49
2022/01/03 12:47:55;;;;;;;4.63;1.02;;;10.70;99.90;;;;;;5003116;28;20179;-50
2022/01/03 12:50:29;;;;;;;2.70;1.00;;;10.70;99.90;;;;;;4999597;28;20023;-50
2022/01/03 12:52:58;;;;;;;2.15;0.77;;;10.70;99.90;;;;;;5001151;28;20369;-50
2022/01/03 12:55:38;;;;;;;0.30;0.30;;;10.70;99.90;;;;;;5002092;28;20026;-50
2022/01/03 12:58:16;;;;;;;2.65;1.02;;;10.70;99.90;;;;;;4999403;28;20044;-49
2022/01/03 13:00:59;;;;;;;1.10;0.80;;;10.70;99.90;;;;;;4999813;28;20073;-50
2022/01/03 13:03:42;;;;;;;0.90;0.90;;;10.70;99.90;;;;;;4999035;28;20032;-49
2022/01/03 13:06:09;;;;;;;0.47;0.45;;;10.70;99.90;;;;;;4999153;28;20071;-50
2022/01/03 13:08:48;;;;;;;3.28;0.93;;;10.70;99.90;;;;;;5005320;28;20470;-49
2022/01/03 13:11:16;;;;;;;6.10;1.13;;;10.70;99.90;;;;;;5001564;28;20460;-50
2022/01/03 13:13:44;;;;;;;0.40;0.40;;;10.70;99.90;;;;;;4999529;28;20036;-50
2022/01/03 13:16:29;;;;;;;4.13;1.85;;;10.70;99.90;;;;;;4999844;28;20019;-49
2022/01/03 13:19:15;;;;;;;1.95;1.02;;;10.70;99.90;;;;;;5000068;28;20026;-49
2022/01/03 13:22:11;;;;;;;0.20;0.20;;;10.70;99.90;;;;;;4997869;28;20034;-50